Barnett Township, Illinois
Current Conditions -  °F | °C
As of 12:15 PM on Wednesday 28 Jan 2015 (Local Time) from KAAA Reporting Station
Clear Clear  
Wind Chill: -2°   Ceiling: Unl
Heat Index:   Visibility: 10mi
Dew Point: -1°   Wind: 20mph
Humidity: 74%   Direction: 160°SSE
Pressure: 30.16"   Gusts: 25mph
Location:  40.143°N, 88.9637°W
Report Text: KAAA 281815Z AUTO 16017G22KT 10SM CLR 03/M01 A3016 RMK AO2 T00331010
Loading
Personal Weather Stations






























Interactive Weather Map New forecast layout! Learn more

10-Day Weather Forecast

Advertisements
Track Severe Weather on mobile